createdAt,value
2022-12-13T00:00:23.873Z,70.22
2022-12-13T00:01:23.852Z,70.13
2022-12-13T00:02:23.891Z,70.13
2022-12-13T00:03:23.835Z,70.22
2022-12-13T00:04:23.918Z,69.93
2022-12-13T00:05:23.823Z,70.13
2022-12-13T00:06:23.835Z,70.32
2022-12-13T00:07:23.812Z,70.32
2022-12-13T00:08:23.838Z,69.93
2022-12-13T00:09:23.820Z,70.13
2022-12-13T00:10:23.788Z,70.13
2022-12-13T00:11:23.814Z,70.22
2022-12-13T00:12:23.791Z,70.13
2022-12-13T00:13:23.790Z,70.03
2022-12-13T00:14:23.759Z,70.13
2022-12-13T00:15:23.773Z,70.13
2022-12-13T00:16:23.853Z,70.03
2022-12-13T00:17:23.765Z,70.32
2022-12-13T00:18:23.751Z,69.93
2022-12-13T00:19:23.739Z,70.13
2022-12-13T00:20:23.723Z,70.13
2022-12-13T00:21:23.722Z,70.03
2022-12-13T00:22:23.725Z,70.13
2022-12-13T00:23:23.720Z,70.03
2022-12-13T00:24:23.710Z,70.03
2022-12-13T00:25:23.710Z,70.03
2022-12-13T00:26:23.685Z,70.13
2022-12-13T00:27:23.681Z,70.03
2022-12-13T00:28:23.680Z,70.32
2022-12-13T00:29:23.667Z,70.32
2022-12-13T00:30:23.661Z,70.03
2022-12-13T00:32:23.699Z,70.22
2022-12-13T00:33:23.652Z,70.13
2022-12-13T00:34:23.644Z,70.13
2022-12-13T00:35:23.636Z,70.03
2022-12-13T00:36:23.630Z,70.03
2022-12-13T00:37:23.617Z,70.03
2022-12-13T00:38:23.612Z,70.03
2022-12-13T00:39:23.595Z,70.03
2022-12-13T00:40:23.603Z,70.13
2022-12-13T00:41:23.615Z,70.13
2022-12-13T00:42:23.578Z,70.13
2022-12-13T00:43:23.586Z,70.03
2022-12-13T00:44:23.573Z,70.03
2022-12-13T00:45:23.571Z,70.03
2022-12-13T00:46:23.632Z,70.13
2022-12-13T00:47:23.546Z,70.03
2022-12-13T00:48:23.547Z,70.32
2022-12-13T00:49:23.548Z,70.22
2022-12-13T00:50:23.518Z,70.22
2022-12-13T00:51:23.540Z,70.13
2022-12-13T00:52:23.524Z,70.03
2022-12-13T00:53:23.523Z,70.22
2022-12-13T00:54:23.492Z,70.22
2022-12-13T00:55:23.515Z,69.93
2022-12-13T00:56:23.568Z,70.13
2022-12-13T00:57:23.573Z,70.13
2022-12-13T00:58:23.483Z,70.22
2022-12-13T00:59:23.473Z,69.93
2022-12-13T01:00:23.451Z,70.13
2022-12-13T01:01:23.478Z,70.22
2022-12-13T01:02:23.451Z,70.03
2022-12-13T01:03:23.481Z,69.93
2022-12-13T01:04:23.444Z,70.22
2022-12-13T01:05:54.567Z,70.13
2022-12-13T01:06:23.422Z,70.03
2022-12-13T01:07:23.409Z,70.22
2022-12-13T01:08:23.420Z,70.13
2022-12-13T01:09:23.413Z,70.13
2022-12-13T01:10:23.398Z,70.13
2022-12-13T01:11:23.380Z,70.13
2022-12-13T01:12:23.368Z,70.03
2022-12-13T01:13:23.395Z,70.13
2022-12-13T01:14:23.369Z,69.84
2022-12-13T01:15:23.352Z,70.13
2022-12-13T01:16:23.392Z,70.13
2022-12-13T01:17:23.342Z,70.22
2022-12-13T01:18:23.328Z,70.22
2022-12-13T01:19:23.327Z,70.13
2022-12-13T01:20:23.315Z,70.13
2022-12-13T01:21:23.338Z,70.22
2022-12-13T01:22:23.318Z,70.13
2022-12-13T01:23:23.297Z,70.13
2022-12-13T01:24:23.286Z,70.03
2022-12-13T01:25:23.301Z,70.22
2022-12-13T01:26:23.298Z,69.93
2022-12-13T01:27:23.282Z,70.13
2022-12-13T01:28:23.261Z,70.03
2022-12-13T01:29:23.292Z,70.13
2022-12-13T01:30:23.258Z,69.74
2022-12-13T01:31:23.293Z,70.03
2022-12-13T01:32:23.275Z,70.22
2022-12-13T01:33:23.242Z,70.13
2022-12-13T01:34:26.339Z,69.84
2022-12-13T01:35:23.216Z,70.22
2022-12-13T01:36:27.342Z,70.03
2022-12-13T01:37:26.014Z,69.93
2022-12-13T01:38:26.235Z,70.03
2022-12-13T01:39:26.509Z,69.84
2022-12-13T01:40:26.416Z,70.03
2022-12-13T01:41:27.008Z,69.84
2022-12-13T01:42:23.166Z,70.22
2022-12-13T01:43:23.164Z,70.32
2022-12-13T01:44:23.162Z,69.93
2022-12-13T01:45:23.173Z,70.13
2022-12-13T01:46:23.213Z,69.93
2022-12-13T01:47:23.156Z,70.03
2022-12-13T01:48:23.125Z,69.93
2022-12-13T01:49:23.121Z,69.84
2022-12-13T01:50:23.115Z,70.22
2022-12-13T01:51:23.129Z,69.84
2022-12-13T01:52:23.143Z,70.22
2022-12-13T01:53:23.107Z,69.84
2022-12-13T01:54:23.089Z,70.22
2022-12-13T01:55:23.106Z,69.84
2022-12-13T01:56:23.079Z,69.93
2022-12-13T01:57:23.064Z,69.93
2022-12-13T01:58:23.067Z,69.93
2022-12-13T01:59:23.054Z,70.03
2022-12-13T02:00:23.053Z,70.03
2022-12-13T02:01:23.128Z,70.22
2022-12-13T02:02:23.045Z,70.22
2022-12-13T02:03:23.024Z,70.03
2022-12-13T02:04:23.014Z,70.22
2022-12-13T02:05:23.138Z,70.03
2022-12-13T02:06:23.012Z,70.22
2022-12-13T02:07:23.734Z,70.32
2022-12-13T02:08:23.049Z,70.70
2022-12-13T02:09:23.023Z,70.42
2022-12-13T02:10:22.968Z,70.51
2022-12-13T02:11:22.970Z,70.09
2022-12-13T02:12:22.973Z,70.19
2022-12-13T02:13:22.953Z,70.51
2022-12-13T02:14:22.955Z,70.32
2022-12-13T02:15:22.940Z,70.32
2022-12-13T02:16:23.224Z,70.38
2022-12-13T02:17:22.943Z,70.19
2022-12-13T02:18:22.910Z,70.19
2022-12-13T02:19:22.924Z,70.22
2022-12-13T02:20:22.914Z,70.67
2022-12-13T02:21:22.904Z,70.38
2022-12-13T02:22:22.908Z,70.47
2022-12-13T02:23:22.897Z,70.22
2022-12-13T02:24:22.888Z,70.19
2022-12-13T02:25:22.869Z,70.38
2022-12-13T02:26:22.872Z,70.32
2022-12-13T02:27:30.210Z,70.22
2022-12-13T02:28:31.807Z,70.51
2022-12-13T02:29:30.685Z,70.28
2022-12-13T02:30:22.833Z,70.19
2022-12-13T02:31:22.897Z,70.19
2022-12-13T02:32:22.836Z,70.13
2022-12-13T02:33:22.843Z,70.28
2022-12-13T02:34:22.805Z,70.28
2022-12-13T02:35:22.811Z,70.28
2022-12-13T02:36:22.787Z,70.19
2022-12-13T02:37:22.787Z,70.19
2022-12-13T02:38:24.747Z,70.19
2022-12-13T02:39:30.299Z,70.38
2022-12-13T02:40:22.772Z,70.19
2022-12-13T02:41:22.770Z,70.38
2022-12-13T02:42:22.753Z,70.13
2022-12-13T02:43:22.766Z,70.47
2022-12-13T02:44:23.386Z,70.38
2022-12-13T02:45:23.145Z,70.47
2022-12-13T02:46:22.800Z,70.09
2022-12-13T02:47:22.834Z,70.28
2022-12-13T02:48:22.718Z,70.19
2022-12-13T02:49:22.722Z,70.19
2022-12-13T02:50:22.704Z,70.28
2022-12-13T02:51:22.702Z,70.28
2022-12-13T02:52:22.933Z,70.28
2022-12-13T02:53:22.687Z,70.19
2022-12-13T02:54:22.661Z,70.28
2022-12-13T02:55:27.779Z,70.28
2022-12-13T02:56:22.662Z,70.28
2022-12-13T02:57:22.659Z,70.28
2022-12-13T02:58:22.638Z,70.28
2022-12-13T02:59:22.651Z,70.19
2022-12-13T03:00:22.619Z,70.28
2022-12-13T03:01:27.637Z,70.67
2022-12-13T03:02:31.269Z,70.19
2022-12-13T03:03:22.740Z,70.38
2022-12-13T03:04:26.414Z,70.28
2022-12-13T03:05:22.620Z,70.19
2022-12-13T03:06:22.595Z,70.38
2022-12-13T03:07:22.585Z,70.67
2022-12-13T03:08:22.619Z,70.28
2022-12-13T03:09:22.563Z,70.28
2022-12-13T03:10:22.568Z,70.67
2022-12-13T03:11:22.557Z,70.47
2022-12-13T03:12:22.540Z,70.67
2022-12-13T03:13:22.536Z,70.47
2022-12-13T03:14:22.520Z,70.67
2022-12-13T03:15:22.515Z,70.38
2022-12-13T03:16:23.688Z,70.38
2022-12-13T03:17:22.505Z,70.38
2022-12-13T03:18:22.490Z,70.38
2022-12-13T03:19:22.496Z,70.47
2022-12-13T03:20:23.597Z,70.38
2022-12-13T03:21:22.507Z,70.38
2022-12-13T03:22:22.475Z,70.47
2022-12-13T03:23:22.473Z,70.47
2022-12-13T03:24:22.448Z,70.19
2022-12-13T03:25:31.192Z,70.38
2022-12-13T03:26:22.433Z,70.38
2022-12-13T03:27:22.433Z,70.47
2022-12-13T03:28:22.443Z,70.47
2022-12-13T03:29:24.305Z,70.38
2022-12-13T03:30:22.405Z,70.38
2022-12-13T03:31:22.445Z,70.38
2022-12-13T03:32:22.390Z,70.28
2022-12-13T03:33:22.389Z,70.38
2022-12-13T03:34:23.740Z,70.28
2022-12-13T03:35:22.833Z,70.28
2022-12-13T03:36:22.378Z,70.28
2022-12-13T03:37:22.395Z,70.28
2022-12-13T03:38:23.460Z,70.28
2022-12-13T03:39:22.354Z,70.38
2022-12-13T03:40:22.336Z,70.38
2022-12-13T03:41:22.346Z,70.76
2022-12-13T03:42:22.334Z,70.28
2022-12-13T03:43:23.082Z,70.47
2022-12-13T03:44:22.303Z,70.38
2022-12-13T03:45:22.304Z,70.38
2022-12-13T03:46:22.327Z,70.38
2022-12-13T03:47:22.290Z,70.28
2022-12-13T03:48:23.429Z,70.47
2022-12-13T03:49:22.295Z,70.76
2022-12-13T03:50:27.226Z,70.67
2022-12-13T03:51:22.260Z,70.67
2022-12-13T03:52:22.250Z,70.47
2022-12-13T03:53:32.387Z,70.67
2022-12-13T03:54:22.248Z,70.47
2022-12-13T03:55:22.242Z,70.47
2022-12-13T03:56:22.224Z,70.38
2022-12-13T03:57:22.240Z,70.67
2022-12-13T03:58:22.205Z,70.47
2022-12-13T03:59:22.213Z,70.47
2022-12-13T04:00:22.210Z,70.47
2022-12-13T04:01:22.380Z,70.47
2022-12-13T04:02:31.071Z,70.57
2022-12-13T04:03:22.289Z,70.00
2022-12-13T04:04:22.165Z,70.47
2022-12-13T04:05:22.157Z,70.67
2022-12-13T04:06:24.617Z,70.38
2022-12-13T04:07:22.842Z,70.00
2022-12-13T04:08:22.807Z,70.38
2022-12-13T04:09:22.151Z,70.57
2022-12-13T04:10:25.929Z,70.09
2022-12-13T04:11:22.136Z,70.09
2022-12-13T04:12:22.107Z,70.47
2022-12-13T04:13:22.101Z,70.47
2022-12-13T04:14:23.098Z,70.09
2022-12-13T04:15:22.096Z,70.28
2022-12-13T04:16:22.123Z,70.47
2022-12-13T04:17:22.090Z,70.00
2022-12-13T04:18:22.065Z,70.47
2022-12-13T04:19:23.658Z,70.28
2022-12-13T04:20:22.049Z,70.47
2022-12-13T04:21:22.062Z,70.38
2022-12-13T04:22:24.961Z,70.67
2022-12-13T04:23:22.034Z,70.67
2022-12-13T04:24:22.022Z,70.47
2022-12-13T04:25:22.027Z,70.67
2022-12-13T04:26:22.032Z,70.47
2022-12-13T04:27:22.008Z,70.47
2022-12-13T04:28:23.088Z,70.47
2022-12-13T04:29:21.985Z,70.67
2022-12-13T04:30:22.003Z,70.09
2022-12-13T04:31:22.083Z,70.19
2022-12-13T04:32:26.796Z,70.47
2022-12-13T04:33:21.999Z,70.47
2022-12-13T04:34:21.961Z,70.76
2022-12-13T04:35:21.942Z,70.38
2022-12-13T04:36:31.681Z,70.28
2022-12-13T04:37:21.945Z,70.38
2022-12-13T04:38:21.934Z,70.00
2022-12-13T04:39:23.010Z,70.47
2022-12-13T04:40:22.176Z,70.38
2022-12-13T04:41:21.935Z,70.47
2022-12-13T04:42:21.905Z,70.47
2022-12-13T04:43:21.882Z,70.47
2022-12-13T04:44:27.544Z,70.47
2022-12-13T04:45:21.863Z,70.38
2022-12-13T04:46:21.859Z,70.38
2022-12-13T04:47:21.874Z,70.47
2022-12-13T04:48:30.220Z,70.38
2022-12-13T04:49:21.834Z,70.38
2022-12-13T04:50:21.840Z,70.47
2022-12-13T04:51:21.838Z,70.57
2022-12-13T04:52:22.246Z,70.47
2022-12-13T04:53:21.819Z,70.28
2022-12-13T04:54:24.297Z,70.47
2022-12-13T04:55:21.792Z,70.47
2022-12-13T04:56:21.802Z,70.28
2022-12-13T04:57:21.811Z,70.00
2022-12-13T04:58:23.248Z,70.67
2022-12-13T04:59:21.770Z,70.00
2022-12-13T05:00:21.772Z,70.09
2022-12-13T05:01:21.786Z,70.47
2022-12-13T05:02:23.554Z,70.47
2022-12-13T05:03:21.741Z,70.38
2022-12-13T05:04:21.729Z,70.57
2022-12-13T05:05:21.723Z,70.47
2022-12-13T05:06:26.893Z,70.57
2022-12-13T05:07:21.731Z,70.38
2022-12-13T05:08:21.784Z,70.38
2022-12-13T05:09:21.693Z,70.19
2022-12-13T05:10:35.993Z,70.28
2022-12-13T05:11:22.868Z,70.28
2022-12-13T05:12:22.865Z,70.38
2022-12-13T05:13:21.683Z,70.47
2022-12-13T05:14:23.489Z,70.28
2022-12-13T05:15:21.663Z,70.47
2022-12-13T05:16:24.663Z,70.67
2022-12-13T05:17:21.634Z,70.38
2022-12-13T05:18:21.627Z,70.47
2022-12-13T05:19:21.634Z,70.38
2022-12-13T05:20:21.631Z,70.67
2022-12-13T05:21:21.619Z,70.38
2022-12-13T05:22:21.619Z,70.38
2022-12-13T05:23:22.305Z,70.67
2022-12-13T05:24:21.600Z,70.38
2022-12-13T05:25:21.579Z,70.47
2022-12-13T05:26:21.584Z,70.47
2022-12-13T05:27:25.472Z,70.67
2022-12-13T05:28:27.864Z,70.38
2022-12-13T05:29:21.585Z,70.38
2022-12-13T05:30:21.559Z,70.47
2022-12-13T05:31:23.459Z,70.28
2022-12-13T05:32:21.599Z,70.00
2022-12-13T05:33:21.515Z,70.38
2022-12-13T05:34:21.584Z,70.38
2022-12-13T05:35:22.854Z,70.00
2022-12-13T05:36:21.500Z,70.47
2022-12-13T05:37:21.519Z,70.47
2022-12-13T05:38:21.501Z,70.09
2022-12-13T05:39:28.424Z,70.47
2022-12-13T05:40:21.471Z,70.67
2022-12-13T05:41:21.466Z,70.09
2022-12-13T05:42:21.460Z,70.38
2022-12-13T05:43:22.435Z,70.47
2022-12-13T05:44:21.442Z,70.47
2022-12-13T05:45:21.471Z,70.67
2022-12-13T05:46:21.453Z,70.57
2022-12-13T05:47:21.426Z,70.57
2022-12-13T05:48:24.803Z,70.57
2022-12-13T05:49:21.416Z,70.47
2022-12-13T05:50:21.414Z,70.47
2022-12-13T05:51:21.397Z,70.38
2022-12-13T05:52:21.385Z,70.38
2022-12-13T05:53:30.578Z,70.38
2022-12-13T05:54:21.370Z,70.19
2022-12-13T05:55:21.359Z,70.00
2022-12-13T05:56:22.913Z,69.90
2022-12-13T05:57:21.363Z,69.90
2022-12-13T05:58:23.383Z,70.00
2022-12-13T05:59:21.329Z,69.71
2022-12-13T06:00:29.639Z,69.33
2022-12-13T06:01:21.336Z,69.14
2022-12-13T06:02:21.930Z,69.62
2022-12-13T06:03:21.527Z,69.62
2022-12-13T06:04:22.260Z,69.52
2022-12-13T06:05:21.306Z,69.14
2022-12-13T06:06:21.293Z,69.04
2022-12-13T06:07:21.275Z,68.85
2022-12-13T06:08:24.687Z,68.98
2022-12-13T06:09:21.286Z,69.08
2022-12-13T06:10:21.698Z,68.98
2022-12-13T06:11:31.849Z,68.51
2022-12-13T06:12:31.800Z,68.70
2022-12-13T06:13:32.136Z,68.70
2022-12-13T06:14:22.480Z,68.88
2022-12-13T06:15:22.266Z,68.51
2022-12-13T06:16:22.664Z,68.70
2022-12-13T06:17:21.586Z,68.79
2022-12-13T06:18:21.201Z,68.51
2022-12-13T06:19:21.191Z,68.41
2022-12-13T06:20:24.308Z,68.22
2022-12-13T06:21:21.191Z,68.60
2022-12-13T06:22:21.176Z,68.16
2022-12-13T06:23:21.183Z,68.32
2022-12-13T06:24:21.188Z,68.22
2022-12-13T06:25:30.975Z,68.35
2022-12-13T06:26:21.164Z,67.87
2022-12-13T06:27:21.139Z,68.06
2022-12-13T06:28:21.141Z,67.77
2022-12-13T06:29:24.616Z,67.58
2022-12-13T06:30:21.137Z,67.77
2022-12-13T06:31:21.187Z,67.77
2022-12-13T06:32:21.125Z,67.30
2022-12-13T06:33:23.123Z,67.40
2022-12-13T06:34:21.100Z,67.40
2022-12-13T06:35:28.768Z,67.49
2022-12-13T06:36:21.104Z,67.68
2022-12-13T06:37:21.095Z,67.68
2022-12-13T06:38:22.096Z,67.58
2022-12-13T06:39:21.077Z,67.58
2022-12-13T06:40:23.193Z,67.58
2022-12-13T06:41:21.052Z,67.68
2022-12-13T06:42:21.364Z,67.68
2022-12-13T06:43:21.056Z,67.30
2022-12-13T06:44:21.051Z,67.30
2022-12-13T06:45:21.029Z,67.40
2022-12-13T06:46:21.137Z,67.33
2022-12-13T06:47:31.821Z,67.43
2022-12-13T06:48:21.030Z,67.43
2022-12-13T06:49:21.090Z,67.05
2022-12-13T06:50:21.002Z,67.24
2022-12-13T06:51:22.485Z,66.85
2022-12-13T06:52:20.990Z,67.05
2022-12-13T06:53:20.979Z,67.24
2022-12-13T06:54:22.079Z,67.14
2022-12-13T06:55:23.700Z,67.24
2022-12-13T06:56:20.966Z,67.14
2022-12-13T06:57:20.972Z,67.24
2022-12-13T06:58:20.954Z,67.14
2022-12-13T06:59:20.944Z,66.85
2022-12-13T07:00:21.942Z,66.95
2022-12-13T07:01:24.211Z,67.24
2022-12-13T07:02:25.765Z,67.52
2022-12-13T07:03:21.008Z,67.33
2022-12-13T07:04:29.326Z,67.52
2022-12-13T07:05:20.943Z,67.52
2022-12-13T07:06:20.912Z,67.81
2022-12-13T07:07:20.924Z,67.52
2022-12-13T07:08:22.525Z,67.62
2022-12-13T07:09:20.886Z,67.43
2022-12-13T07:10:22.202Z,67.33
2022-12-13T07:11:20.877Z,68.00
2022-12-13T07:12:20.994Z,67.91
2022-12-13T07:13:20.864Z,67.91
2022-12-13T07:14:20.871Z,67.91
2022-12-13T07:15:20.854Z,67.81
2022-12-13T07:16:20.903Z,67.62
2022-12-13T07:17:33.379Z,68.10
2022-12-13T07:18:20.838Z,68.00
2022-12-13T07:19:23.695Z,68.29
2022-12-13T07:20:20.829Z,68.29
2022-12-13T07:21:22.291Z,68.00
2022-12-13T07:22:20.836Z,68.29
2022-12-13T07:23:24.574Z,68.29
2022-12-13T07:24:20.820Z,68.19
2022-12-13T07:25:28.217Z,68.38
2022-12-13T07:26:20.793Z,68.38
2022-12-13T07:27:20.785Z,68.48
2022-12-13T07:28:20.786Z,68.48
2022-12-13T07:29:22.805Z,68.38
2022-12-13T07:30:20.786Z,68.76
2022-12-13T07:31:20.821Z,68.57
2022-12-13T07:32:20.776Z,68.57
2022-12-13T07:33:21.953Z,68.44
2022-12-13T07:34:20.761Z,69.02
2022-12-13T07:35:20.735Z,68.29
2022-12-13T07:36:20.753Z,68.76
2022-12-13T07:37:29.988Z,68.35
2022-12-13T07:38:20.719Z,68.54
2022-12-13T07:39:20.726Z,68.44
2022-12-13T07:40:20.712Z,68.44
2022-12-13T07:41:23.804Z,68.92
2022-12-13T07:42:20.697Z,68.73
2022-12-13T07:43:21.052Z,68.73
2022-12-13T07:44:20.688Z,68.82
2022-12-13T07:45:20.689Z,68.54
2022-12-13T07:46:31.892Z,68.44
2022-12-13T07:47:20.678Z,68.63
2022-12-13T07:48:20.686Z,68.73
2022-12-13T07:49:20.664Z,68.82
2022-12-13T07:50:25.036Z,69.21
2022-12-13T07:51:20.655Z,69.11
2022-12-13T07:52:20.639Z,69.11
2022-12-13T07:53:21.283Z,69.02
2022-12-13T07:54:20.624Z,69.02
2022-12-13T07:55:22.906Z,68.92
2022-12-13T07:56:20.632Z,69.02
2022-12-13T07:57:20.609Z,69.31
2022-12-13T07:58:20.614Z,69.31
2022-12-13T07:59:28.921Z,69.21
2022-12-13T08:00:20.637Z,69.49
2022-12-13T08:01:20.631Z,69.59
2022-12-13T08:02:20.591Z,69.59
2022-12-13T08:03:25.654Z,69.59
2022-12-13T08:04:20.643Z,69.21
2022-12-13T08:05:26.704Z,69.21
2022-12-13T08:06:20.566Z,69.78
2022-12-13T08:07:20.542Z,69.87
2022-12-13T08:08:20.605Z,69.59
2022-12-13T08:09:20.712Z,69.78
2022-12-13T08:10:20.524Z,69.59
2022-12-13T08:11:20.535Z,69.40
2022-12-13T08:12:22.265Z,69.49
2022-12-13T08:13:20.940Z,69.31
2022-12-13T08:14:20.555Z,69.49
2022-12-13T08:15:20.511Z,69.21
2022-12-13T08:16:26.654Z,69.40
2022-12-13T08:17:20.476Z,69.59
2022-12-13T08:18:20.475Z,69.46
2022-12-13T08:19:20.587Z,69.78
2022-12-13T08:20:22.035Z,69.59
2022-12-13T08:21:51.805Z,69.84
2022-12-13T08:22:23.722Z,69.46
2022-12-13T08:23:20.697Z,69.65
2022-12-13T08:24:20.462Z,69.65
2022-12-13T08:25:20.513Z,69.65
2022-12-13T08:26:20.431Z,70.13
2022-12-13T08:27:20.435Z,70.22
2022-12-13T08:28:20.410Z,70.13
2022-12-13T08:29:23.385Z,69.93
2022-12-13T08:30:23.092Z,70.03
2022-12-13T08:31:20.509Z,70.03
2022-12-13T08:32:20.452Z,69.84
2022-12-13T08:33:20.677Z,69.93
2022-12-13T08:34:20.396Z,69.93
2022-12-13T08:35:20.364Z,69.74
2022-12-13T08:36:20.373Z,70.03
2022-12-13T08:37:20.348Z,70.13
2022-12-13T08:38:22.788Z,70.13
2022-12-13T08:39:20.348Z,70.13
2022-12-13T08:40:20.339Z,70.03
2022-12-13T08:41:20.342Z,70.22
2022-12-13T08:42:20.602Z,70.03
2022-12-13T08:43:24.805Z,69.84
2022-12-13T08:44:20.322Z,70.03
2022-12-13T08:45:20.309Z,70.22
2022-12-13T08:46:20.360Z,70.13
2022-12-13T08:47:24.023Z,70.22
2022-12-13T08:48:20.663Z,70.03
2022-12-13T08:49:20.294Z,70.22
2022-12-13T08:50:20.266Z,70.51
2022-12-13T08:51:24.422Z,70.42
2022-12-13T08:52:20.260Z,70.22
2022-12-13T08:53:28.237Z,70.32
2022-12-13T08:54:31.353Z,70.32
2022-12-13T08:55:31.981Z,70.42
2022-12-13T08:56:20.223Z,70.42
2022-12-13T08:57:20.253Z,70.51
2022-12-13T08:58:20.237Z,70.51
2022-12-13T08:59:20.215Z,70.22
2022-12-13T09:00:20.211Z,70.70
2022-12-13T09:01:20.218Z,70.32
2022-12-13T09:02:20.204Z,70.51
2022-12-13T09:03:20.600Z,70.51
2022-12-13T09:04:20.197Z,70.61
2022-12-13T09:05:33.364Z,70.70
2022-12-13T09:06:20.152Z,70.61
2022-12-13T09:07:20.152Z,70.70
2022-12-13T09:08:24.679Z,70.51
2022-12-13T09:09:20.145Z,70.79
2022-12-13T09:10:27.316Z,70.70
2022-12-13T09:11:22.752Z,70.70
2022-12-13T09:12:30.511Z,70.51
2022-12-13T09:13:32.232Z,70.51
2022-12-13T09:14:23.611Z,70.61
2022-12-13T09:15:22.272Z,70.61
2022-12-13T09:16:23.431Z,70.42
2022-12-13T09:17:24.906Z,70.22
2022-12-13T09:18:24.157Z,70.22
2022-12-13T09:19:26.386Z,70.51
2022-12-13T09:20:28.911Z,70.32
2022-12-13T09:21:22.449Z,70.13
2022-12-13T09:22:33.114Z,70.51
2022-12-13T09:23:24.121Z,70.22
2022-12-13T09:24:24.338Z,70.42
2022-12-13T09:25:23.927Z,70.51
2022-12-13T09:26:25.252Z,70.42
2022-12-13T09:27:27.464Z,70.47
2022-12-13T09:28:20.031Z,70.09
2022-12-13T09:29:20.004Z,70.61
2022-12-13T09:30:20.000Z,70.61
2022-12-13T09:31:20.035Z,70.47
2022-12-13T09:32:19.988Z,70.57
2022-12-13T09:33:29.970Z,70.61
2022-12-13T09:34:20.063Z,70.67
2022-12-13T09:35:19.971Z,70.76
2022-12-13T09:36:19.988Z,70.67
2022-12-13T09:37:22.981Z,70.47
2022-12-13T09:38:19.937Z,70.03
2022-12-13T09:39:20.029Z,70.38
2022-12-13T09:40:25.688Z,70.28
2022-12-13T09:41:20.347Z,70.38
2022-12-13T09:42:20.861Z,70.28
2022-12-13T09:43:22.849Z,70.00
2022-12-13T09:44:31.108Z,69.84
2022-12-13T09:45:22.492Z,69.93
2022-12-13T09:46:23.304Z,69.93
2022-12-13T09:47:22.843Z,70.19
2022-12-13T09:48:22.648Z,69.84
2022-12-13T09:49:23.321Z,70.03
2022-12-13T09:50:20.020Z,70.00
2022-12-13T09:51:28.617Z,70.00
2022-12-13T09:52:21.477Z,70.00
2022-12-13T09:53:33.935Z,69.90
2022-12-13T09:54:19.844Z,69.90
2022-12-13T09:55:19.816Z,70.09
2022-12-13T09:56:19.821Z,69.93
2022-12-13T09:57:31.987Z,70.09
2022-12-13T09:58:20.296Z,70.09
2022-12-13T09:59:19.803Z,70.00
2022-12-13T10:00:19.796Z,70.09
2022-12-13T10:01:23.394Z,69.90
2022-12-13T10:02:19.836Z,70.09
2022-12-13T10:03:20.164Z,69.90
2022-12-13T10:04:19.772Z,69.90
2022-12-13T10:05:22.167Z,70.28
2022-12-13T10:06:22.906Z,70.28
2022-12-13T10:07:19.758Z,69.90
2022-12-13T10:08:20.047Z,70.00
2022-12-13T10:09:19.746Z,70.19
2022-12-13T10:10:19.788Z,70.19
2022-12-13T10:11:19.728Z,70.09
2022-12-13T10:12:19.696Z,70.09
2022-12-13T10:13:19.860Z,69.90
2022-12-13T10:14:19.691Z,70.09
2022-12-13T10:15:21.801Z,70.00
2022-12-13T10:16:23.871Z,70.09
2022-12-13T10:17:19.687Z,70.28
2022-12-13T10:18:19.674Z,70.28
2022-12-13T10:19:28.126Z,70.28
2022-12-13T10:20:19.662Z,70.09
2022-12-13T10:21:19.642Z,70.00
2022-12-13T10:22:19.673Z,70.28
2022-12-13T10:23:52.884Z,70.28
2022-12-13T10:24:32.986Z,70.09
2022-12-13T10:25:19.602Z,70.19
2022-12-13T10:26:24.526Z,70.28
2022-12-13T10:27:19.614Z,70.09
2022-12-13T10:28:19.589Z,70.28
2022-12-13T10:29:19.613Z,70.09
2022-12-13T10:30:24.540Z,70.09
2022-12-13T10:31:19.595Z,70.00
2022-12-13T10:32:19.550Z,70.09
2022-12-13T10:33:24.414Z,70.19
2022-12-13T10:34:19.546Z,69.90
2022-12-13T10:35:19.545Z,70.28
2022-12-13T10:36:23.527Z,70.28
2022-12-13T10:37:19.546Z,70.00
2022-12-13T10:38:19.509Z,70.00
2022-12-13T10:39:19.503Z,70.09
2022-12-13T10:40:32.311Z,70.19
2022-12-13T10:41:19.511Z,69.81
2022-12-13T10:42:22.526Z,69.62
2022-12-13T10:43:19.486Z,69.81
2022-12-13T10:44:19.526Z,69.71
2022-12-13T10:45:23.308Z,70.09
2022-12-13T10:46:25.194Z,70.00
2022-12-13T10:47:19.480Z,70.00
2022-12-13T10:48:19.435Z,70.00
2022-12-13T10:49:19.468Z,69.90
2022-12-13T10:50:19.459Z,69.90
2022-12-13T10:51:19.447Z,70.00
2022-12-13T10:52:19.452Z,70.00
2022-12-13T10:53:19.419Z,70.00
2022-12-13T10:54:19.411Z,70.00
2022-12-13T10:55:23.181Z,70.00
2022-12-13T10:56:22.916Z,70.00
2022-12-13T10:57:19.386Z,70.00
2022-12-13T10:58:19.370Z,70.09
2022-12-13T10:59:19.376Z,69.90
2022-12-13T11:00:19.367Z,70.19
2022-12-13T11:01:19.402Z,70.19
2022-12-13T11:02:19.424Z,70.19
2022-12-13T11:03:19.347Z,69.43
2022-12-13T11:04:25.422Z,69.43
2022-12-13T11:05:23.068Z,69.62
2022-12-13T11:06:19.319Z,69.43
2022-12-13T11:07:19.321Z,69.62
2022-12-13T11:08:19.290Z,69.62
2022-12-13T11:09:23.204Z,69.62
2022-12-13T11:10:25.192Z,69.43
2022-12-13T11:11:19.275Z,69.52
2022-12-13T11:12:19.342Z,69.52
2022-12-13T11:13:19.272Z,69.90
2022-12-13T11:14:19.265Z,69.43
2022-12-13T11:15:19.259Z,69.71
2022-12-13T11:16:19.305Z,69.71
2022-12-13T11:17:19.240Z,69.62
2022-12-13T11:18:19.232Z,69.52
2022-12-13T11:19:19.277Z,69.43
2022-12-13T11:20:19.218Z,69.52
2022-12-13T11:21:19.222Z,69.43
2022-12-13T11:22:19.211Z,69.43
2022-12-13T11:23:19.198Z,69.52
2022-12-13T11:24:23.158Z,69.43
2022-12-13T11:25:19.185Z,69.43
2022-12-13T11:26:24.533Z,69.43
2022-12-13T11:27:19.160Z,69.62
2022-12-13T11:28:27.243Z,69.04
2022-12-13T11:29:19.157Z,68.95
2022-12-13T11:30:19.153Z,68.95
2022-12-13T11:31:19.233Z,69.33
2022-12-13T11:32:22.823Z,69.33
2022-12-13T11:33:19.161Z,69.14
2022-12-13T11:34:19.124Z,69.33
2022-12-13T11:35:19.148Z,69.43
2022-12-13T11:36:19.155Z,69.23
2022-12-13T11:37:19.141Z,69.14
2022-12-13T11:38:19.148Z,69.43
2022-12-13T11:39:19.096Z,69.14
2022-12-13T11:40:19.114Z,69.33
2022-12-13T11:41:31.473Z,69.43
2022-12-13T11:42:19.101Z,69.33
2022-12-13T11:43:19.112Z,69.33
2022-12-13T11:44:19.354Z,69.14
2022-12-13T11:45:22.587Z,69.23
2022-12-13T11:46:19.178Z,69.33
2022-12-13T11:47:19.082Z,69.23
2022-12-13T11:48:19.032Z,68.95
2022-12-13T11:49:19.035Z,69.33
2022-12-13T11:50:33.233Z,68.95
2022-12-13T11:51:19.027Z,69.33
2022-12-13T11:52:18.982Z,69.23
2022-12-13T11:53:19.079Z,69.14
2022-12-13T11:54:24.137Z,69.14
2022-12-13T11:55:18.982Z,69.43
2022-12-13T11:56:18.959Z,69.43
2022-12-13T11:57:18.954Z,69.43
2022-12-13T11:58:32.453Z,69.33
2022-12-13T11:59:25.998Z,69.14
2022-12-13T12:00:33.805Z,69.43
2022-12-13T12:01:18.941Z,69.43
2022-12-13T12:02:18.981Z,69.43
2022-12-13T12:03:19.020Z,69.14
2022-12-13T12:04:18.913Z,69.33
2022-12-13T12:05:18.910Z,69.43
2022-12-13T12:06:18.885Z,69.46
2022-12-13T12:07:32.417Z,69.33
2022-12-13T12:08:31.834Z,69.33
2022-12-13T12:09:18.874Z,69.43
2022-12-13T12:10:18.854Z,69.23
2022-12-13T12:11:18.867Z,69.33
2022-12-13T12:12:22.088Z,69.37
2022-12-13T12:13:18.841Z,69.33
2022-12-13T12:14:18.841Z,69.43
2022-12-13T12:15:18.825Z,69.33
2022-12-13T12:16:18.903Z,69.14
2022-12-13T12:17:18.808Z,69.43
2022-12-13T12:18:18.803Z,69.23
2022-12-13T12:19:18.797Z,69.23
2022-12-13T12:20:23.478Z,69.33
2022-12-13T12:21:18.794Z,69.04
2022-12-13T12:22:18.775Z,69.14
2022-12-13T12:23:18.779Z,69.33
2022-12-13T12:24:18.759Z,69.23
2022-12-13T12:25:18.764Z,69.04
2022-12-13T12:26:18.754Z,68.95
2022-12-13T12:27:22.244Z,69.14
2022-12-13T12:28:18.732Z,69.33
2022-12-13T12:29:18.726Z,69.23
2022-12-13T12:30:22.683Z,69.14
2022-12-13T12:31:18.759Z,69.33
2022-12-13T12:32:18.759Z,69.43
2022-12-13T12:33:18.715Z,69.33
2022-12-13T12:34:18.704Z,69.33
2022-12-13T12:35:18.688Z,69.33
2022-12-13T12:36:18.688Z,69.14
2022-12-13T12:37:18.672Z,69.43
2022-12-13T12:38:18.659Z,69.37
2022-12-13T12:39:18.669Z,69.37
2022-12-13T12:40:18.662Z,69.46
2022-12-13T12:41:18.644Z,69.46
2022-12-13T12:42:18.636Z,69.27
2022-12-13T12:43:18.632Z,69.46
2022-12-13T12:44:18.637Z,69.46
2022-12-13T12:45:54.518Z,69.33
2022-12-13T12:46:18.673Z,69.17
2022-12-13T12:47:38.146Z,69.46
2022-12-13T12:49:18.640Z,68.98
2022-12-13T12:50:18.579Z,69.46
2022-12-13T12:51:18.574Z,68.98
2022-12-13T12:52:18.570Z,69.08
2022-12-13T12:53:18.580Z,69.17
2022-12-13T12:54:18.556Z,69.17